sensor_id;sensor_type;location;lat;lon;timestamp;P1;durP1;ratioP1;P2;durP2;ratioP2
2624;SDS011;1322;53.256;10.386;2024-02-23T00:00:02;1.73;;;1.20;;
2624;SDS011;1322;53.256;10.386;2024-02-23T00:02:30;1.70;;;1.20;;
2624;SDS011;1322;53.256;10.386;2024-02-23T00:04:56;2.40;;;1.20;;
2624;SDS011;1322;53.256;10.386;2024-02-23T00:07:22;2.17;;;1.10;;
2624;SDS011;1322;53.256;10.386;2024-02-23T00:09:47;1.60;;;1.20;;
2624;SDS011;1322;53.256;10.386;2024-02-23T00:12:13;2.73;;;1.73;;
2624;SDS011;1322;53.256;10.386;2024-02-23T00:14:39;3.70;;;1.70;;
2624;SDS011;1322;53.256;10.386;2024-02-23T00:17:05;2.10;;;1.37;;
2624;SDS011;1322;53.256;10.386;2024-02-23T00:19:31;1.63;;;1.53;;
2624;SDS011;1322;53.256;10.386;2024-02-23T00:21:57;3.87;;;1.37;;
2624;SDS011;1322;53.256;10.386;2024-02-23T00:24:24;4.80;;;1.50;;
2624;SDS011;1322;53.256;10.386;2024-02-23T00:26:50;4.53;;;1.50;;
2624;SDS011;1322;53.256;10.386;2024-02-23T00:29:16;1.90;;;1.50;;
2624;SDS011;1322;53.256;10.386;2024-02-23T00:31:42;3.13;;;1.57;;
2624;SDS011;1322;53.256;10.386;2024-02-23T00:34:10;2.03;;;1.60;;
2624;SDS011;1322;53.256;10.386;2024-02-23T00:36:38;2.90;;;1.50;;
2624;SDS011;1322;53.256;10.386;2024-02-23T00:39:04;2.73;;;1.30;;
2624;SDS011;1322;53.256;10.386;2024-02-23T00:41:32;4.10;;;1.60;;
2624;SDS011;1322;53.256;10.386;2024-02-23T00:43:58;3.20;;;1.40;;
2624;SDS011;1322;53.256;10.386;2024-02-23T00:46:23;2.10;;;1.20;;
2624;SDS011;1322;53.256;10.386;2024-02-23T00:48:49;2.13;;;1.20;;
2624;SDS011;1322;53.256;10.386;2024-02-23T00:51:15;2.00;;;1.30;;
2624;SDS011;1322;53.256;10.386;2024-02-23T00:53:41;4.27;;;1.50;;
2624;SDS011;1322;53.256;10.386;2024-02-23T00:56:06;13.60;;;1.43;;
2624;SDS011;1322;53.256;10.386;2024-02-23T00:58:32;2.90;;;1.20;;
2624;SDS011;1322;53.256;10.386;2024-02-23T01:00:58;1.63;;;1.13;;
2624;SDS011;1322;53.256;10.386;2024-02-23T01:03:24;1.30;;;0.93;;
2624;SDS011;1322;53.256;10.386;2024-02-23T01:05:50;9.67;;;3.63;;
2624;SDS011;1322;53.256;10.386;2024-02-23T01:08:15;2.13;;;1.10;;
2624;SDS011;1322;53.256;10.386;2024-02-23T01:10:41;2.63;;;1.30;;
2624;SDS011;1322;53.256;10.386;2024-02-23T01:13:06;1.87;;;1.30;;
2624;SDS011;1322;53.256;10.386;2024-02-23T01:15:32;2.53;;;1.10;;
2624;SDS011;1322;53.256;10.386;2024-02-23T01:17:58;1.67;;;1.10;;
2624;SDS011;1322;53.256;10.386;2024-02-23T01:20:23;2.83;;;1.10;;
2624;SDS011;1322;53.256;10.386;2024-02-23T01:22:49;4.17;;;1.23;;
2624;SDS011;1322;53.256;10.386;2024-02-23T01:25:14;2.30;;;1.10;;
2624;SDS011;1322;53.256;10.386;2024-02-23T01:27:40;5.00;;;1.17;;
2624;SDS011;1322;53.256;10.386;2024-02-23T01:30:07;5.20;;;1.27;;
2624;SDS011;1322;53.256;10.386;2024-02-23T01:32:32;3.00;;;0.90;;
2624;SDS011;1322;53.256;10.386;2024-02-23T01:34:58;3.93;;;1.30;;
2624;SDS011;1322;53.256;10.386;2024-02-23T01:37:24;3.40;;;1.20;;
2624;SDS011;1322;53.256;10.386;2024-02-23T01:39:49;2.80;;;1.47;;
2624;SDS011;1322;53.256;10.386;2024-02-23T01:42:15;2.73;;;1.10;;
2624;SDS011;1322;53.256;10.386;2024-02-23T01:44:41;1.10;;;0.70;;
2624;SDS011;1322;53.256;10.386;2024-02-23T01:47:06;2.63;;;0.90;;
2624;SDS011;1322;53.256;10.386;2024-02-23T01:49:32;1.40;;;0.87;;
2624;SDS011;1322;53.256;10.386;2024-02-23T01:52:00;1.10;;;0.70;;
2624;SDS011;1322;53.256;10.386;2024-02-23T01:54:26;1.50;;;0.90;;
2624;SDS011;1322;53.256;10.386;2024-02-23T01:56:55;2.03;;;0.80;;
2624;SDS011;1322;53.256;10.386;2024-02-23T01:59:23;1.40;;;0.67;;
2624;SDS011;1322;53.256;10.386;2024-02-23T02:01:50;1.50;;;0.77;;
2624;SDS011;1322;53.256;10.386;2024-02-23T02:04:16;3.00;;;0.80;;
2624;SDS011;1322;53.256;10.386;2024-02-23T02:06:41;1.00;;;0.60;;
2624;SDS011;1322;53.256;10.386;2024-02-23T02:09:07;1.10;;;0.70;;
2624;SDS011;1322;53.256;10.386;2024-02-23T02:11:33;1.67;;;0.80;;
2624;SDS011;1322;53.256;10.386;2024-02-23T02:13:59;1.20;;;0.70;;
2624;SDS011;1322;53.256;10.386;2024-02-23T02:16:25;2.23;;;0.90;;
2624;SDS011;1322;53.256;10.386;2024-02-23T02:18:50;1.43;;;0.77;;
2624;SDS011;1322;53.256;10.386;2024-02-23T02:21:16;1.30;;;0.80;;
2624;SDS011;1322;53.256;10.386;2024-02-23T02:23:42;1.27;;;0.80;;
2624;SDS011;1322;53.256;10.386;2024-02-23T02:26:07;1.77;;;0.90;;
2624;SDS011;1322;53.256;10.386;2024-02-23T02:28:33;1.10;;;0.70;;
2624;SDS011;1322;53.256;10.386;2024-02-23T02:30:59;1.33;;;0.73;;
2624;SDS011;1322;53.256;10.386;2024-02-23T02:33:25;1.60;;;0.80;;
2624;SDS011;1322;53.256;10.386;2024-02-23T02:35:50;1.30;;;0.87;;
2624;SDS011;1322;53.256;10.386;2024-02-23T02:38:16;1.03;;;0.70;;
2624;SDS011;1322;53.256;10.386;2024-02-23T02:40:41;1.20;;;0.80;;
2624;SDS011;1322;53.256;10.386;2024-02-23T02:43:07;1.10;;;0.80;;
2624;SDS011;1322;53.256;10.386;2024-02-23T02:45:33;1.80;;;0.80;;
2624;SDS011;1322;53.256;10.386;2024-02-23T02:48:02;1.23;;;0.80;;
2624;SDS011;1322;53.256;10.386;2024-02-23T02:50:28;1.40;;;0.83;;
2624;SDS011;1322;53.256;10.386;2024-02-23T02:52:54;1.00;;;0.70;;
2624;SDS011;1322;53.256;10.386;2024-02-23T02:55:20;1.00;;;0.60;;
2624;SDS011;1322;53.256;10.386;2024-02-23T02:57:45;1.10;;;0.73;;
2624;SDS011;1322;53.256;10.386;2024-02-23T03:00:11;1.10;;;0.60;;
2624;SDS011;1322;53.256;10.386;2024-02-23T03:02:37;1.23;;;1.13;;
2624;SDS011;1322;53.256;10.386;2024-02-23T03:05:03;1.10;;;0.70;;
2624;SDS011;1322;53.256;10.386;2024-02-23T03:07:29;1.10;;;0.70;;
2624;SDS011;1322;53.256;10.386;2024-02-23T03:09:55;1.20;;;0.60;;
2624;SDS011;1322;53.256;10.386;2024-02-23T03:12:21;1.30;;;0.70;;
2624;SDS011;1322;53.256;10.386;2024-02-23T03:14:46;1.93;;;0.80;;
2624;SDS011;1322;53.256;10.386;2024-02-23T03:17:12;1.00;;;0.60;;
2624;SDS011;1322;53.256;10.386;2024-02-23T03:19:38;1.00;;;0.60;;
2624;SDS011;1322;53.256;10.386;2024-02-23T03:22:04;1.40;;;0.70;;
2624;SDS011;1322;53.256;10.386;2024-02-23T03:24:30;2.37;;;0.73;;
2624;SDS011;1322;53.256;10.386;2024-02-23T03:26:55;1.63;;;0.70;;
2624;SDS011;1322;53.256;10.386;2024-02-23T03:29:22;2.67;;;1.00;;
2624;SDS011;1322;53.256;10.386;2024-02-23T03:31:54;1.10;;;0.70;;
2624;SDS011;1322;53.256;10.386;2024-02-23T03:34:20;1.00;;;0.70;;
2624;SDS011;1322;53.256;10.386;2024-02-23T03:36:46;1.10;;;0.80;;
2624;SDS011;1322;53.256;10.386;2024-02-23T03:39:11;1.10;;;0.60;;
2624;SDS011;1322;53.256;10.386;2024-02-23T03:41:37;1.60;;;0.70;;
2624;SDS011;1322;53.256;10.386;2024-02-23T03:44:02;1.10;;;0.70;;
2624;SDS011;1322;53.256;10.386;2024-02-23T03:46:28;1.30;;;0.80;;
2624;SDS011;1322;53.256;10.386;2024-02-23T03:48:54;1.50;;;0.70;;
2624;SDS011;1322;53.256;10.386;2024-02-23T03:51:19;2.57;;;0.60;;
2624;SDS011;1322;53.256;10.386;2024-02-23T03:53:45;1.30;;;0.70;;
2624;SDS011;1322;53.256;10.386;2024-02-23T03:56:10;1.73;;;0.77;;
2624;SDS011;1322;53.256;10.386;2024-02-23T03:58:36;1.50;;;0.70;;
2624;SDS011;1322;53.256;10.386;2024-02-23T04:01:02;1.10;;;0.73;;
2624;SDS011;1322;53.256;10.386;2024-02-23T04:03:27;1.10;;;0.60;;
2624;SDS011;1322;53.256;10.386;2024-02-23T04:05:53;1.10;;;0.70;;
2624;SDS011;1322;53.256;10.386;2024-02-23T04:08:18;2.17;;;0.80;;
2624;SDS011;1322;53.256;10.386;2024-02-23T04:10:44;1.10;;;0.70;;
2624;SDS011;1322;53.256;10.386;2024-02-23T04:13:10;1.80;;;0.80;;
2624;SDS011;1322;53.256;10.386;2024-02-23T04:15:38;1.10;;;0.70;;
2624;SDS011;1322;53.256;10.386;2024-02-23T04:18:04;1.00;;;0.60;;
2624;SDS011;1322;53.256;10.386;2024-02-23T04:20:30;1.87;;;0.70;;
2624;SDS011;1322;53.256;10.386;2024-02-23T04:22:57;1.10;;;0.70;;
2624;SDS011;1322;53.256;10.386;2024-02-23T04:25:22;1.30;;;0.90;;
2624;SDS011;1322;53.256;10.386;2024-02-23T04:27:48;1.20;;;0.77;;
2624;SDS011;1322;53.256;10.386;2024-02-23T04:30:14;1.10;;;0.70;;
2624;SDS011;1322;53.256;10.386;2024-02-23T04:32:39;3.00;;;0.93;;
2624;SDS011;1322;53.256;10.386;2024-02-23T04:35:05;3.50;;;0.90;;
2624;SDS011;1322;53.256;10.386;2024-02-23T04:37:31;1.20;;;0.80;;
2624;SDS011;1322;53.256;10.386;2024-02-23T04:39:56;2.03;;;1.10;;
2624;SDS011;1322;53.256;10.386;2024-02-23T04:42:22;3.47;;;0.90;;
2624;SDS011;1322;53.256;10.386;2024-02-23T04:44:48;2.10;;;1.10;;
2624;SDS011;1322;53.256;10.386;2024-02-23T04:47:14;4.60;;;1.13;;
2624;SDS011;1322;53.256;10.386;2024-02-23T04:49:40;1.50;;;1.17;;
2624;SDS011;1322;53.256;10.386;2024-02-23T04:52:07;1.90;;;1.13;;
2624;SDS011;1322;53.256;10.386;2024-02-23T04:54:33;2.77;;;1.20;;
2624;SDS011;1322;53.256;10.386;2024-02-23T04:57:00;8.13;;;1.60;;
2624;SDS011;1322;53.256;10.386;2024-02-23T04:59:25;1.93;;;1.20;;
2624;SDS011;1322;53.256;10.386;2024-02-23T05:01:51;3.37;;;1.13;;
2624;SDS011;1322;53.256;10.386;2024-02-23T05:04:16;1.97;;;1.10;;
2624;SDS011;1322;53.256;10.386;2024-02-23T05:06:42;3.10;;;1.40;;
2624;SDS011;1322;53.256;10.386;2024-02-23T05:09:08;2.60;;;1.30;;
2624;SDS011;1322;53.256;10.386;2024-02-23T05:11:35;2.27;;;1.50;;
2624;SDS011;1322;53.256;10.386;2024-02-23T05:14:00;2.17;;;1.27;;
2624;SDS011;1322;53.256;10.386;2024-02-23T05:16:26;1.63;;;1.30;;
2624;SDS011;1322;53.256;10.386;2024-02-23T05:18:52;2.10;;;1.30;;
2624;SDS011;1322;53.256;10.386;2024-02-23T05:21:17;25.80;;;2.87;;
2624;SDS011;1322;53.256;10.386;2024-02-23T05:23:43;4.20;;;1.60;;
2624;SDS011;1322;53.256;10.386;2024-02-23T05:26:08;2.53;;;1.57;;
2624;SDS011;1322;53.256;10.386;2024-02-23T05:28:35;4.23;;;1.30;;
2624;SDS011;1322;53.256;10.386;2024-02-23T05:31:02;3.93;;;1.53;;
2624;SDS011;1322;53.256;10.386;2024-02-23T05:33:28;2.77;;;1.67;;
2624;SDS011;1322;53.256;10.386;2024-02-23T05:35:54;2.00;;;1.30;;
2624;SDS011;1322;53.256;10.386;2024-02-23T05:38:20;4.37;;;1.50;;
2624;SDS011;1322;53.256;10.386;2024-02-23T05:40:45;2.50;;;1.50;;
2624;SDS011;1322;53.256;10.386;2024-02-23T05:43:13;2.03;;;1.30;;
2624;SDS011;1322;53.256;10.386;2024-02-23T05:45:39;2.83;;;1.77;;
2624;SDS011;1322;53.256;10.386;2024-02-23T05:48:04;12.30;;;1.53;;
2624;SDS011;1322;53.256;10.386;2024-02-23T05:50:31;2.80;;;2.00;;
2624;SDS011;1322;53.256;10.386;2024-02-23T05:52:57;4.50;;;1.57;;
2624;SDS011;1322;53.256;10.386;2024-02-23T05:55:23;2.60;;;1.80;;
2624;SDS011;1322;53.256;10.386;2024-02-23T05:57:49;4.80;;;1.70;;
2624;SDS011;1322;53.256;10.386;2024-02-23T06:00:15;2.87;;;1.40;;
2624;SDS011;1322;53.256;10.386;2024-02-23T06:02:44;2.17;;;1.53;;
2624;SDS011;1322;53.256;10.386;2024-02-23T06:05:11;6.27;;;3.47;;
2624;SDS011;1322;53.256;10.386;2024-02-23T06:07:37;4.23;;;2.33;;
2624;SDS011;1322;53.256;10.386;2024-02-23T06:10:03;2.63;;;2.07;;
2624;SDS011;1322;53.256;10.386;2024-02-23T06:12:30;2.93;;;1.70;;
2624;SDS011;1322;53.256;10.386;2024-02-23T06:14:55;1.93;;;1.33;;
2624;SDS011;1322;53.256;10.386;2024-02-23T06:17:22;2.03;;;1.53;;
2624;SDS011;1322;53.256;10.386;2024-02-23T06:19:48;2.40;;;1.37;;
2624;SDS011;1322;53.256;10.386;2024-02-23T06:22:14;3.20;;;1.70;;
2624;SDS011;1322;53.256;10.386;2024-02-23T06:24:42;9.43;;;2.00;;
2624;SDS011;1322;53.256;10.386;2024-02-23T06:27:07;5.60;;;2.90;;
2624;SDS011;1322;53.256;10.386;2024-02-23T06:29:33;3.40;;;2.17;;
2624;SDS011;1322;53.256;10.386;2024-02-23T06:31:59;3.27;;;1.97;;
2624;SDS011;1322;53.256;10.386;2024-02-23T06:34:26;2.90;;;1.97;;
2624;SDS011;1322;53.256;10.386;2024-02-23T06:36:52;6.90;;;2.20;;
2624;SDS011;1322;53.256;10.386;2024-02-23T06:39:17;3.77;;;2.20;;
2624;SDS011;1322;53.256;10.386;2024-02-23T06:41:44;3.67;;;2.13;;
2624;SDS011;1322;53.256;10.386;2024-02-23T06:44:10;2.40;;;2.20;;
2624;SDS011;1322;53.256;10.386;2024-02-23T06:46:36;5.00;;;1.97;;
2624;SDS011;1322;53.256;10.386;2024-02-23T06:49:02;3.90;;;2.23;;
2624;SDS011;1322;53.256;10.386;2024-02-23T06:51:29;2.40;;;2.03;;
2624;SDS011;1322;53.256;10.386;2024-02-23T06:53:56;6.50;;;3.33;;
2624;SDS011;1322;53.256;10.386;2024-02-23T06:56:22;3.90;;;2.37;;
2624;SDS011;1322;53.256;10.386;2024-02-23T06:58:47;5.07;;;2.20;;
2624;SDS011;1322;53.256;10.386;2024-02-23T07:01:13;4.80;;;1.97;;
2624;SDS011;1322;53.256;10.386;2024-02-23T07:03:39;4.10;;;2.30;;
2624;SDS011;1322;53.256;10.386;2024-02-23T07:06:06;3.80;;;1.87;;
2624;SDS011;1322;53.256;10.386;2024-02-23T07:08:35;4.23;;;2.10;;
2624;SDS011;1322;53.256;10.386;2024-02-23T07:11:01;3.60;;;2.03;;
2624;SDS011;1322;53.256;10.386;2024-02-23T07:13:27;4.00;;;1.87;;
2624;SDS011;1322;53.256;10.386;2024-02-23T07:15:53;2.50;;;1.53;;
2624;SDS011;1322;53.256;10.386;2024-02-23T07:18:20;3.30;;;1.80;;
2624;SDS011;1322;53.256;10.386;2024-02-23T07:20:46;3.23;;;1.77;;
2624;SDS011;1322;53.256;10.386;2024-02-23T07:23:12;6.10;;;2.07;;
2624;SDS011;1322;53.256;10.386;2024-02-23T07:25:37;7.63;;;2.03;;
2624;SDS011;1322;53.256;10.386;2024-02-23T07:28:03;7.57;;;3.53;;
2624;SDS011;1322;53.256;10.386;2024-02-23T07:30:29;5.73;;;2.17;;
2624;SDS011;1322;53.256;10.386;2024-02-23T07:32:55;2.57;;;1.40;;
2624;SDS011;1322;53.256;10.386;2024-02-23T07:35:20;2.47;;;1.30;;
2624;SDS011;1322;53.256;10.386;2024-02-23T07:37:46;3.30;;;1.60;;
2624;SDS011;1322;53.256;10.386;2024-02-23T07:40:12;5.60;;;1.90;;
2624;SDS011;1322;53.256;10.386;2024-02-23T07:42:38;3.87;;;2.10;;
2624;SDS011;1322;53.256;10.386;2024-02-23T07:45:04;4.90;;;1.70;;
2624;SDS011;1322;53.256;10.386;2024-02-23T07:47:31;7.47;;;2.57;;
2624;SDS011;1322;53.256;10.386;2024-02-23T07:49:57;2.80;;;1.40;;
2624;SDS011;1322;53.256;10.386;2024-02-23T07:52:23;3.70;;;1.23;;
2624;SDS011;1322;53.256;10.386;2024-02-23T07:54:49;2.07;;;1.70;;
2624;SDS011;1322;53.256;10.386;2024-02-23T07:57:19;6.10;;;1.83;;
2624;SDS011;1322;53.256;10.386;2024-02-23T07:59:45;7.80;;;1.80;;
2624;SDS011;1322;53.256;10.386;2024-02-23T08:02:11;9.80;;;2.03;;
2624;SDS011;1322;53.256;10.386;2024-02-23T08:04:36;2.80;;;1.40;;
2624;SDS011;1322;53.256;10.386;2024-02-23T08:07:03;3.70;;;1.80;;
2624;SDS011;1322;53.256;10.386;2024-02-23T08:09:29;2.90;;;1.50;;
2624;SDS011;1322;53.256;10.386;2024-02-23T08:11:55;12.57;;;2.13;;
2624;SDS011;1322;53.256;10.386;2024-02-23T08:14:20;5.20;;;1.90;;
2624;SDS011;1322;53.256;10.386;2024-02-23T08:16:46;4.23;;;1.73;;
2624;SDS011;1322;53.256;10.386;2024-02-23T08:19:12;4.20;;;1.47;;
2624;SDS011;1322;53.256;10.386;2024-02-23T08:21:37;4.67;;;2.80;;
2624;SDS011;1322;53.256;10.386;2024-02-23T08:24:04;3.53;;;1.70;;
2624;SDS011;1322;53.256;10.386;2024-02-23T08:26:30;8.93;;;2.77;;
2624;SDS011;1322;53.256;10.386;2024-02-23T08:28:56;9.90;;;1.50;;
2624;SDS011;1322;53.256;10.386;2024-02-23T08:31:21;2.83;;;1.57;;
2624;SDS011;1322;53.256;10.386;2024-02-23T08:33:47;4.17;;;1.67;;
2624;SDS011;1322;53.256;10.386;2024-02-23T08:36:13;2.53;;;1.60;;
2624;SDS011;1322;53.256;10.386;2024-02-23T08:38:38;9.17;;;1.83;;
2624;SDS011;1322;53.256;10.386;2024-02-23T08:41:04;4.07;;;2.60;;
2624;SDS011;1322;53.256;10.386;2024-02-23T08:43:30;5.53;;;1.67;;
2624;SDS011;1322;53.256;10.386;2024-02-23T08:45:56;5.47;;;2.37;;
2624;SDS011;1322;53.256;10.386;2024-02-23T08:48:21;3.10;;;1.67;;
2624;SDS011;1322;53.256;10.386;2024-02-23T08:50:47;6.83;;;1.83;;
2624;SDS011;1322;53.256;10.386;2024-02-23T08:53:16;2.47;;;1.60;;
2624;SDS011;1322;53.256;10.386;2024-02-23T08:55:42;4.07;;;2.10;;
2624;SDS011;1322;53.256;10.386;2024-02-23T08:58:07;7.87;;;1.87;;
2624;SDS011;1322;53.256;10.386;2024-02-23T09:00:34;4.93;;;1.77;;
2624;SDS011;1322;53.256;10.386;2024-02-23T09:03:02;3.40;;;1.90;;
2624;SDS011;1322;53.256;10.386;2024-02-23T09:05:27;7.07;;;2.00;;
2624;SDS011;1322;53.256;10.386;2024-02-23T09:07:53;3.60;;;1.77;;
2624;SDS011;1322;53.256;10.386;2024-02-23T09:10:19;4.27;;;1.60;;
2624;SDS011;1322;53.256;10.386;2024-02-23T09:12:45;3.43;;;2.03;;
2624;SDS011;1322;53.256;10.386;2024-02-23T09:15:11;2.20;;;2.00;;
2624;SDS011;1322;53.256;10.386;2024-02-23T09:17:36;3.97;;;1.53;;
2624;SDS011;1322;53.256;10.386;2024-02-23T09:20:02;4.70;;;2.03;;
2624;SDS011;1322;53.256;10.386;2024-02-23T09:22:28;4.00;;;1.40;;
2624;SDS011;1322;53.256;10.386;2024-02-23T09:24:54;2.73;;;1.50;;
2624;SDS011;1322;53.256;10.386;2024-02-23T09:27:21;2.87;;;1.60;;
2624;SDS011;1322;53.256;10.386;2024-02-23T09:29:46;3.37;;;1.43;;
2624;SDS011;1322;53.256;10.386;2024-02-23T09:32:12;7.87;;;1.97;;
2624;SDS011;1322;53.256;10.386;2024-02-23T09:34:38;2.77;;;1.87;;
2624;SDS011;1322;53.256;10.386;2024-02-23T09:37:03;5.10;;;1.73;;
2624;SDS011;1322;53.256;10.386;2024-02-23T09:39:29;4.43;;;1.80;;
2624;SDS011;1322;53.256;10.386;2024-02-23T09:41:55;3.20;;;1.60;;
2624;SDS011;1322;53.256;10.386;2024-02-23T09:44:22;17.23;;;2.00;;
2624;SDS011;1322;53.256;10.386;2024-02-23T09:46:47;6.80;;;1.40;;
2624;SDS011;1322;53.256;10.386;2024-02-23T09:49:14;5.60;;;1.67;;
2624;SDS011;1322;53.256;10.386;2024-02-23T09:51:41;3.97;;;1.40;;
2624;SDS011;1322;53.256;10.386;2024-02-23T09:54:07;2.90;;;1.50;;
2624;SDS011;1322;53.256;10.386;2024-02-23T09:56:33;5.93;;;1.87;;
2624;SDS011;1322;53.256;10.386;2024-02-23T09:58:59;7.57;;;1.70;;
2624;SDS011;1322;53.256;10.386;2024-02-23T10:01:28;3.67;;;1.43;;
2624;SDS011;1322;53.256;10.386;2024-02-23T10:04:01;4.00;;;1.53;;
2624;SDS011;1322;53.256;10.386;2024-02-23T10:06:31;2.23;;;1.70;;
2624;SDS011;1322;53.256;10.386;2024-02-23T10:08:57;2.20;;;1.53;;
2624;SDS011;1322;53.256;10.386;2024-02-23T10:11:23;5.13;;;2.23;;
2624;SDS011;1322;53.256;10.386;2024-02-23T10:13:50;3.93;;;1.60;;
2624;SDS011;1322;53.256;10.386;2024-02-23T10:16:20;2.77;;;1.50;;
2624;SDS011;1322;53.256;10.386;2024-02-23T10:18:48;2.13;;;1.50;;
2624;SDS011;1322;53.256;10.386;2024-02-23T10:21:16;4.37;;;1.80;;
2624;SDS011;1322;53.256;10.386;2024-02-23T10:23:45;4.33;;;1.70;;
2624;SDS011;1322;53.256;10.386;2024-02-23T10:26:13;5.73;;;2.10;;
2624;SDS011;1322;53.256;10.386;2024-02-23T10:28:44;4.40;;;2.17;;
2624;SDS011;1322;53.256;10.386;2024-02-23T10:31:11;9.23;;;1.50;;
2624;SDS011;1322;53.256;10.386;2024-02-23T10:33:36;3.00;;;1.43;;
2624;SDS011;1322;53.256;10.386;2024-02-23T10:36:03;5.87;;;1.70;;
2624;SDS011;1322;53.256;10.386;2024-02-23T10:38:33;3.30;;;1.17;;
2624;SDS011;1322;53.256;10.386;2024-02-23T10:41:02;2.03;;;1.23;;
2624;SDS011;1322;53.256;10.386;2024-02-23T10:43:44;4.90;;;1.67;;
2624;SDS011;1322;53.256;10.386;2024-02-23T10:46:12;2.17;;;1.10;;
2624;SDS011;1322;53.256;10.386;2024-02-23T10:48:39;2.87;;;1.57;;
2624;SDS011;1322;53.256;10.386;2024-02-23T10:51:06;3.87;;;1.50;;
2624;SDS011;1322;53.256;10.386;2024-02-23T10:53:32;7.30;;;1.60;;
2624;SDS011;1322;53.256;10.386;2024-02-23T10:56:00;6.50;;;1.67;;
2624;SDS011;1322;53.256;10.386;2024-02-23T10:58:26;4.50;;;1.20;;
2624;SDS011;1322;53.256;10.386;2024-02-23T11:00:52;3.20;;;1.30;;
2624;SDS011;1322;53.256;10.386;2024-02-23T11:03:25;4.17;;;1.30;;
2624;SDS011;1322;53.256;10.386;2024-02-23T11:05:53;4.63;;;1.50;;
2624;SDS011;1322;53.256;10.386;2024-02-23T11:08:19;2.90;;;1.00;;
2624;SDS011;1322;53.256;10.386;2024-02-23T11:10:51;3.17;;;1.40;;
2624;SDS011;1322;53.256;10.386;2024-02-23T11:13:17;3.30;;;1.23;;
2624;SDS011;1322;53.256;10.386;2024-02-23T11:15:43;1.73;;;1.10;;
2624;SDS011;1322;53.256;10.386;2024-02-23T11:21:08;5.37;;;1.23;;
2624;SDS011;1322;53.256;10.386;2024-02-23T11:23:41;7.53;;;1.20;;
2624;SDS011;1322;53.256;10.386;2024-02-23T11:26:11;3.10;;;1.10;;
2624;SDS011;1322;53.256;10.386;2024-02-23T11:31:14;5.57;;;1.40;;
2624;SDS011;1322;53.256;10.386;2024-02-23T11:33:40;5.10;;;3.30;;
2624;SDS011;1322;53.256;10.386;2024-02-23T11:36:21;5.90;;;2.07;;
2624;SDS011;1322;53.256;10.386;2024-02-23T11:39:07;2.00;;;0.90;;
2624;SDS011;1322;53.256;10.386;2024-02-23T11:41:37;4.87;;;1.43;;
2624;SDS011;1322;53.256;10.386;2024-02-23T11:44:04;4.37;;;1.40;;
2624;SDS011;1322;53.256;10.386;2024-02-23T11:46:32;1.97;;;1.00;;
2624;SDS011;1322;53.256;10.386;2024-02-23T11:48:57;6.20;;;1.43;;
2624;SDS011;1322;53.256;10.386;2024-02-23T11:51:25;5.30;;;1.20;;
2624;SDS011;1322;53.256;10.386;2024-02-23T11:53:54;2.00;;;1.23;;
2624;SDS011;1322;53.256;10.386;2024-02-23T11:56:23;3.73;;;1.30;;
2624;SDS011;1322;53.256;10.386;2024-02-23T11:58:48;5.70;;;1.37;;
2624;SDS011;1322;53.256;10.386;2024-02-23T12:01:14;1.83;;;1.00;;
2624;SDS011;1322;53.256;10.386;2024-02-23T12:03:44;4.27;;;1.10;;
2624;SDS011;1322;53.256;10.386;2024-02-23T12:06:10;2.70;;;1.13;;
2624;SDS011;1322;53.256;10.386;2024-02-23T12:08:38;2.47;;;1.13;;
2624;SDS011;1322;53.256;10.386;2024-02-23T12:11:07;2.60;;;1.30;;
2624;SDS011;1322;53.256;10.386;2024-02-23T12:13:34;2.50;;;1.23;;
2624;SDS011;1322;53.256;10.386;2024-02-23T12:16:01;3.93;;;1.63;;
2624;SDS011;1322;53.256;10.386;2024-02-23T12:18:27;2.07;;;1.00;;
2624;SDS011;1322;53.256;10.386;2024-02-23T12:21:00;1.50;;;0.90;;
2624;SDS011;1322;53.256;10.386;2024-02-23T12:23:27;2.80;;;1.03;;
2624;SDS011;1322;53.256;10.386;2024-02-23T12:26:13;1.50;;;1.07;;
2624;SDS011;1322;53.256;10.386;2024-02-23T12:28:40;3.10;;;1.00;;
2624;SDS011;1322;53.256;10.386;2024-02-23T12:31:06;7.20;;;3.00;;
2624;SDS011;1322;53.256;10.386;2024-02-23T12:33:32;3.63;;;1.47;;
2624;SDS011;1322;53.256;10.386;2024-02-23T12:36:03;4.80;;;1.33;;
2624;SDS011;1322;53.256;10.386;2024-02-23T12:38:29;2.73;;;1.17;;
2624;SDS011;1322;53.256;10.386;2024-02-23T12:40:55;1.50;;;0.93;;
2624;SDS011;1322;53.256;10.386;2024-02-23T12:43:21;1.90;;;1.20;;
2624;SDS011;1322;53.256;10.386;2024-02-23T12:45:49;2.53;;;0.80;;
2624;SDS011;1322;53.256;10.386;2024-02-23T12:48:15;2.00;;;1.10;;
2624;SDS011;1322;53.256;10.386;2024-02-23T12:50:42;3.83;;;1.00;;
2624;SDS011;1322;53.256;10.386;2024-02-23T12:53:08;5.07;;;1.23;;
2624;SDS011;1322;53.256;10.386;2024-02-23T12:55:35;1.70;;;1.00;;
2624;SDS011;1322;53.256;10.386;2024-02-23T12:58:01;3.80;;;1.17;;
2624;SDS011;1322;53.256;10.386;2024-02-23T13:00:27;3.13;;;0.93;;
2624;SDS011;1322;53.256;10.386;2024-02-23T13:02:53;1.80;;;1.20;;
2624;SDS011;1322;53.256;10.386;2024-02-23T13:05:19;1.73;;;1.07;;
2624;SDS011;1322;53.256;10.386;2024-02-23T13:07:45;4.50;;;1.10;;
2624;SDS011;1322;53.256;10.386;2024-02-23T13:10:12;2.63;;;1.00;;
2624;SDS011;1322;53.256;10.386;2024-02-23T13:12:37;1.63;;;1.00;;
2624;SDS011;1322;53.256;10.386;2024-02-23T13:15:03;1.27;;;0.83;;
2624;SDS011;1322;53.256;10.386;2024-02-23T13:17:29;1.73;;;0.93;;
2624;SDS011;1322;53.256;10.386;2024-02-23T13:19:55;3.20;;;0.97;;
2624;SDS011;1322;53.256;10.386;2024-02-23T13:22:20;4.77;;;0.90;;
2624;SDS011;1322;53.256;10.386;2024-02-23T13:24:46;1.90;;;1.07;;
2624;SDS011;1322;53.256;10.386;2024-02-23T13:27:11;1.93;;;1.00;;
2624;SDS011;1322;53.256;10.386;2024-02-23T13:29:37;2.60;;;1.03;;
2624;SDS011;1322;53.256;10.386;2024-02-23T13:32:03;4.33;;;1.20;;
2624;SDS011;1322;53.256;10.386;2024-02-23T13:34:28;4.80;;;1.20;;
2624;SDS011;1322;53.256;10.386;2024-02-23T13:36:54;1.57;;;0.97;;
2624;SDS011;1322;53.256;10.386;2024-02-23T13:39:20;5.73;;;1.40;;
2624;SDS011;1322;53.256;10.386;2024-02-23T13:41:45;3.13;;;1.30;;
2624;SDS011;1322;53.256;10.386;2024-02-23T13:44:11;1.93;;;0.80;;
2624;SDS011;1322;53.256;10.386;2024-02-23T13:46:39;4.33;;;3.07;;
2624;SDS011;1322;53.256;10.386;2024-02-23T13:49:05;2.40;;;1.00;;
2624;SDS011;1322;53.256;10.386;2024-02-23T13:51:32;3.77;;;1.40;;
2624;SDS011;1322;53.256;10.386;2024-02-23T13:53:58;1.67;;;1.10;;
2624;SDS011;1322;53.256;10.386;2024-02-23T13:56:24;6.30;;;1.37;;
2624;SDS011;1322;53.256;10.386;2024-02-23T13:58:50;2.07;;;0.90;;
2624;SDS011;1322;53.256;10.386;2024-02-23T14:01:15;7.10;;;1.23;;
2624;SDS011;1322;53.256;10.386;2024-02-23T14:03:41;2.43;;;1.20;;
2624;SDS011;1322;53.256;10.386;2024-02-23T14:06:07;2.33;;;1.20;;
2624;SDS011;1322;53.256;10.386;2024-02-23T14:08:33;3.10;;;1.30;;
2624;SDS011;1322;53.256;10.386;2024-02-23T14:11:00;2.50;;;0.90;;
2624;SDS011;1322;53.256;10.386;2024-02-23T14:13:26;2.57;;;1.00;;
2624;SDS011;1322;53.256;10.386;2024-02-23T14:15:52;2.37;;;1.00;;
2624;SDS011;1322;53.256;10.386;2024-02-23T14:18:17;1.83;;;1.00;;
2624;SDS011;1322;53.256;10.386;2024-02-23T14:20:43;2.97;;;1.27;;
2624;SDS011;1322;53.256;10.386;2024-02-23T14:23:08;6.30;;;1.40;;
2624;SDS011;1322;53.256;10.386;2024-02-23T14:25:34;2.37;;;1.10;;
2624;SDS011;1322;53.256;10.386;2024-02-23T14:28:00;4.70;;;1.23;;
2624;SDS011;1322;53.256;10.386;2024-02-23T14:30:25;2.10;;;1.57;;
2624;SDS011;1322;53.256;10.386;2024-02-23T14:32:51;1.73;;;1.03;;
2624;SDS011;1322;53.256;10.386;2024-02-23T14:35:16;2.80;;;1.10;;
2624;SDS011;1322;53.256;10.386;2024-02-23T14:37:42;3.77;;;1.30;;
2624;SDS011;1322;53.256;10.386;2024-02-23T14:40:08;2.57;;;1.63;;
2624;SDS011;1322;53.256;10.386;2024-02-23T14:42:34;2.37;;;1.07;;
2624;SDS011;1322;53.256;10.386;2024-02-23T14:45:00;2.83;;;1.13;;
2624;SDS011;1322;53.256;10.386;2024-02-23T14:47:25;3.77;;;1.17;;
2624;SDS011;1322;53.256;10.386;2024-02-23T14:49:51;6.23;;;1.40;;
2624;SDS011;1322;53.256;10.386;2024-02-23T14:52:16;4.07;;;1.40;;
2624;SDS011;1322;53.256;10.386;2024-02-23T14:54:42;3.63;;;1.43;;
2624;SDS011;1322;53.256;10.386;2024-02-23T14:57:08;1.70;;;1.40;;
2624;SDS011;1322;53.256;10.386;2024-02-23T14:59:33;2.13;;;1.57;;